sensor_id;sensor_type;location;lat;lon;timestamp;temperature;humidity
45435;DHT22;31183;47.404;8.500;2023-03-23T00:02:26;13.60;73.70
45435;DHT22;31183;47.404;8.500;2023-03-23T00:04:52;13.70;75.30
45435;DHT22;31183;47.404;8.500;2023-03-23T00:07:21;13.60;73.20
45435;DHT22;31183;47.404;8.500;2023-03-23T00:09:53;13.60;73.90
45435;DHT22;31183;47.404;8.500;2023-03-23T00:12:20;13.70;73.30
45435;DHT22;31183;47.404;8.500;2023-03-23T00:14:46;13.80;74.60
45435;DHT22;31183;47.404;8.500;2023-03-23T00:17:12;13.80;75.80
45435;DHT22;31183;47.404;8.500;2023-03-23T00:19:39;13.80;72.50
45435;DHT22;31183;47.404;8.500;2023-03-23T00:22:14;13.70;73.20
45435;DHT22;31183;47.404;8.500;2023-03-23T00:24:41;13.50;74.00
45435;DHT22;31183;47.404;8.500;2023-03-23T00:27:06;13.50;73.80
45435;DHT22;31183;47.404;8.500;2023-03-23T00:29:34;13.40;73.90
45435;DHT22;31183;47.404;8.500;2023-03-23T00:31:59;13.40;74.20
45435;DHT22;31183;47.404;8.500;2023-03-23T00:34:25;13.50;75.80
45435;DHT22;31183;47.404;8.500;2023-03-23T00:36:51;13.40;74.60
45435;DHT22;31183;47.404;8.500;2023-03-23T00:39:18;13.40;74.10
45435;DHT22;31183;47.404;8.500;2023-03-23T00:41:44;13.40;74.10
45435;DHT22;31183;47.404;8.500;2023-03-23T00:44:09;13.40;75.50
45435;DHT22;31183;47.404;8.500;2023-03-23T00:46:35;13.30;74.20
45435;DHT22;31183;47.404;8.500;2023-03-23T00:49:10;13.30;75.90
45435;DHT22;31183;47.404;8.500;2023-03-23T00:51:37;13.40;76.30
45435;DHT22;31183;47.404;8.500;2023-03-23T00:54:03;13.40;74.00
45435;DHT22;31183;47.404;8.500;2023-03-23T00:56:28;13.40;75.00
45435;DHT22;31183;47.404;8.500;2023-03-23T00:58:54;13.40;73.90
45435;DHT22;31183;47.404;8.500;2023-03-23T01:01:20;13.40;73.50
45435;DHT22;31183;47.404;8.500;2023-03-23T01:03:45;13.30;73.30
45435;DHT22;31183;47.404;8.500;2023-03-23T01:06:11;13.30;73.20
45435;DHT22;31183;47.404;8.500;2023-03-23T01:08:40;13.30;76.30
45435;DHT22;31183;47.404;8.500;2023-03-23T01:11:13;13.30;74.70
45435;DHT22;31183;47.404;8.500;2023-03-23T01:13:40;13.30;74.60
45435;DHT22;31183;47.404;8.500;2023-03-23T01:16:07;13.20;74.60
45435;DHT22;31183;47.404;8.500;2023-03-23T01:18:33;13.20;74.80
45435;DHT22;31183;47.404;8.500;2023-03-23T01:21:02;13.10;76.00
45435;DHT22;31183;47.404;8.500;2023-03-23T01:23:28;13.20;75.10
45435;DHT22;31183;47.404;8.500;2023-03-23T01:25:53;13.20;76.10
45435;DHT22;31183;47.404;8.500;2023-03-23T01:28:23;13.20;76.00
45435;DHT22;31183;47.404;8.500;2023-03-23T01:30:48;13.20;74.70
45435;DHT22;31183;47.404;8.500;2023-03-23T01:33:14;13.20;76.40
45435;DHT22;31183;47.404;8.500;2023-03-23T01:35:39;13.20;75.10
45435;DHT22;31183;47.404;8.500;2023-03-23T01:38:05;13.10;74.50
45435;DHT22;31183;47.404;8.500;2023-03-23T01:40:30;13.20;76.40
45435;DHT22;31183;47.404;8.500;2023-03-23T01:42:56;13.20;75.60
45435;DHT22;31183;47.404;8.500;2023-03-23T01:45:23;13.30;76.50
45435;DHT22;31183;47.404;8.500;2023-03-23T01:47:52;13.30;74.90
45435;DHT22;31183;47.404;8.500;2023-03-23T01:50:19;13.30;75.30
45435;DHT22;31183;47.404;8.500;2023-03-23T01:52:48;13.40;75.50
45435;DHT22;31183;47.404;8.500;2023-03-23T01:55:14;13.50;76.50
45435;DHT22;31183;47.404;8.500;2023-03-23T01:57:41;13.60;76.60
45435;DHT22;31183;47.404;8.500;2023-03-23T02:00:07;13.50;76.50
45435;DHT22;31183;47.404;8.500;2023-03-23T02:02:35;13.60;77.90
45435;DHT22;31183;47.404;8.500;2023-03-23T02:05:04;13.50;77.00
45435;DHT22;31183;47.404;8.500;2023-03-23T02:07:33;13.50;76.10
45435;DHT22;31183;47.404;8.500;2023-03-23T02:09:59;13.50;77.10
45435;DHT22;31183;47.404;8.500;2023-03-23T02:12:25;13.60;77.30
45435;DHT22;31183;47.404;8.500;2023-03-23T02:14:51;13.60;77.80
45435;DHT22;31183;47.404;8.500;2023-03-23T02:22:59;13.50;77.30
45435;DHT22;31183;47.404;8.500;2023-03-23T02:33:33;13.10;78.90
45435;DHT22;31183;47.404;8.500;2023-03-23T02:35:34;13.10;77.70
45435;DHT22;31183;47.404;8.500;2023-03-23T02:38:02;13.20;78.20
45435;DHT22;31183;47.404;8.500;2023-03-23T02:40:35;13.30;80.20
45435;DHT22;31183;47.404;8.500;2023-03-23T02:43:01;13.30;79.70
45435;DHT22;31183;47.404;8.500;2023-03-23T02:45:27;13.30;78.10
45435;DHT22;31183;47.404;8.500;2023-03-23T02:47:54;13.30;77.50
45435;DHT22;31183;47.404;8.500;2023-03-23T02:50:21;13.30;76.40
45435;DHT22;31183;47.404;8.500;2023-03-23T02:52:47;13.40;76.70
45435;DHT22;31183;47.404;8.500;2023-03-23T02:55:13;13.40;75.10
45435;DHT22;31183;47.404;8.500;2023-03-23T02:57:41;13.40;77.70
45435;DHT22;31183;47.404;8.500;2023-03-23T03:00:07;13.50;78.70
45435;DHT22;31183;47.404;8.500;2023-03-23T03:02:57;13.50;76.80
45435;DHT22;31183;47.404;8.500;2023-03-23T03:15:29;13.50;77.60
45435;DHT22;31183;47.404;8.500;2023-03-23T03:18:03;13.30;78.10
45435;DHT22;31183;47.404;8.500;2023-03-23T03:20:30;13.30;80.30
45435;DHT22;31183;47.404;8.500;2023-03-23T03:22:56;13.30;78.00
45435;DHT22;31183;47.404;8.500;2023-03-23T03:25:22;13.20;78.90
45435;DHT22;31183;47.404;8.500;2023-03-23T03:27:48;13.30;78.70
45435;DHT22;31183;47.404;8.500;2023-03-23T03:30:19;13.20;76.70
45435;DHT22;31183;47.404;8.500;2023-03-23T03:32:51;13.20;75.20
45435;DHT22;31183;47.404;8.500;2023-03-23T03:35:19;13.20;75.50
45435;DHT22;31183;47.404;8.500;2023-03-23T03:37:45;13.20;74.70
45435;DHT22;31183;47.404;8.500;2023-03-23T03:40:13;13.20;75.00
45435;DHT22;31183;47.404;8.500;2023-03-23T03:42:39;13.30;74.60
45435;DHT22;31183;47.404;8.500;2023-03-23T03:45:05;13.30;73.90
45435;DHT22;31183;47.404;8.500;2023-03-23T03:47:32;13.30;74.80
45435;DHT22;31183;47.404;8.500;2023-03-23T03:49:58;13.30;74.30
45435;DHT22;31183;47.404;8.500;2023-03-23T03:52:23;13.30;74.90
45435;DHT22;31183;47.404;8.500;2023-03-23T03:54:49;13.30;74.90
45435;DHT22;31183;47.404;8.500;2023-03-23T03:57:14;13.40;75.00
45435;DHT22;31183;47.404;8.500;2023-03-23T03:59:43;13.40;73.60
45435;DHT22;31183;47.404;8.500;2023-03-23T04:02:09;13.50;75.40
45435;DHT22;31183;47.404;8.500;2023-03-23T04:04:38;13.50;77.00
45435;DHT22;31183;47.404;8.500;2023-03-23T04:07:04;13.50;76.60
45435;DHT22;31183;47.404;8.500;2023-03-23T04:09:30;13.60;77.90
45435;DHT22;31183;47.404;8.500;2023-03-23T04:11:56;13.50;77.30
45435;DHT22;31183;47.404;8.500;2023-03-23T04:14:22;13.60;77.30
45435;DHT22;31183;47.404;8.500;2023-03-23T04:16:47;13.60;75.40
45435;DHT22;31183;47.404;8.500;2023-03-23T04:19:13;13.60;75.50
45435;DHT22;31183;47.404;8.500;2023-03-23T04:21:38;13.60;76.00
45435;DHT22;31183;47.404;8.500;2023-03-23T04:24:04;13.60;74.50
45435;DHT22;31183;47.404;8.500;2023-03-23T04:26:30;13.60;77.10
45435;DHT22;31183;47.404;8.500;2023-03-23T04:28:55;13.60;77.00
45435;DHT22;31183;47.404;8.500;2023-03-23T04:31:22;13.60;77.60
45435;DHT22;31183;47.404;8.500;2023-03-23T04:33:50;13.60;76.80
45435;DHT22;31183;47.404;8.500;2023-03-23T04:36:17;13.60;77.20
45435;DHT22;31183;47.404;8.500;2023-03-23T04:38:43;13.60;78.50
45435;DHT22;31183;47.404;8.500;2023-03-23T04:41:08;13.60;79.40
45435;DHT22;31183;47.404;8.500;2023-03-23T04:43:34;13.60;77.80
45435;DHT22;31183;47.404;8.500;2023-03-23T04:46:07;13.60;76.60
45435;DHT22;31183;47.404;8.500;2023-03-23T04:48:34;13.50;77.40
45435;DHT22;31183;47.404;8.500;2023-03-23T04:51:03;13.50;76.40
45435;DHT22;31183;47.404;8.500;2023-03-23T04:53:29;13.40;73.70
45435;DHT22;31183;47.404;8.500;2023-03-23T04:55:55;13.40;73.00
45435;DHT22;31183;47.404;8.500;2023-03-23T04:58:21;13.30;74.60
45435;DHT22;31183;47.404;8.500;2023-03-23T05:00:48;13.30;74.10
45435;DHT22;31183;47.404;8.500;2023-03-23T05:03:18;13.40;73.40
45435;DHT22;31183;47.404;8.500;2023-03-23T05:05:44;13.40;74.00
45435;DHT22;31183;47.404;8.500;2023-03-23T05:08:15;13.50;74.00
45435;DHT22;31183;47.404;8.500;2023-03-23T05:10:40;13.50;75.10
45435;DHT22;31183;47.404;8.500;2023-03-23T05:13:06;13.50;73.60
45435;DHT22;31183;47.404;8.500;2023-03-23T05:15:31;13.50;73.60
45435;DHT22;31183;47.404;8.500;2023-03-23T05:17:57;13.50;73.10
45435;DHT22;31183;47.404;8.500;2023-03-23T05:20:22;13.50;73.60
45435;DHT22;31183;47.404;8.500;2023-03-23T05:22:48;13.50;74.10
45435;DHT22;31183;47.404;8.500;2023-03-23T05:25:14;13.50;74.20
45435;DHT22;31183;47.404;8.500;2023-03-23T05:27:40;13.50;76.50
45435;DHT22;31183;47.404;8.500;2023-03-23T05:30:14;13.50;74.30
45435;DHT22;31183;47.404;8.500;2023-03-23T05:32:42;13.50;75.20
45435;DHT22;31183;47.404;8.500;2023-03-23T05:35:08;13.50;75.70
45435;DHT22;31183;47.404;8.500;2023-03-23T05:37:33;13.40;75.70
45435;DHT22;31183;47.404;8.500;2023-03-23T05:39:59;13.40;77.50
45435;DHT22;31183;47.404;8.500;2023-03-23T05:42:30;13.40;77.30
45435;DHT22;31183;47.404;8.500;2023-03-23T05:44:56;13.30;76.40
45435;DHT22;31183;47.404;8.500;2023-03-23T05:47:21;13.20;75.30
45435;DHT22;31183;47.404;8.500;2023-03-23T05:49:47;13.30;77.20
45435;DHT22;31183;47.404;8.500;2023-03-23T05:52:12;13.30;76.10
45435;DHT22;31183;47.404;8.500;2023-03-23T05:54:38;13.50;75.80
45435;DHT22;31183;47.404;8.500;2023-03-23T05:57:04;13.50;74.00
45435;DHT22;31183;47.404;8.500;2023-03-23T05:59:30;13.50;74.80
45435;DHT22;31183;47.404;8.500;2023-03-23T06:01:56;13.60;73.40
45435;DHT22;31183;47.404;8.500;2023-03-23T06:04:22;13.60;74.00
45435;DHT22;31183;47.404;8.500;2023-03-23T06:06:50;13.60;72.90
45435;DHT22;31183;47.404;8.500;2023-03-23T06:09:17;13.60;73.30
45435;DHT22;31183;47.404;8.500;2023-03-23T06:11:43;13.60;73.80
45435;DHT22;31183;47.404;8.500;2023-03-23T06:14:08;13.70;74.20
45435;DHT22;31183;47.404;8.500;2023-03-23T06:16:34;13.70;74.20
45435;DHT22;31183;47.404;8.500;2023-03-23T06:18:59;13.70;72.90
45435;DHT22;31183;47.404;8.500;2023-03-23T06:21:26;13.70;73.30
45435;DHT22;31183;47.404;8.500;2023-03-23T06:23:51;13.80;73.70
45435;DHT22;31183;47.404;8.500;2023-03-23T06:26:17;13.80;72.10
45435;DHT22;31183;47.404;8.500;2023-03-23T06:28:44;13.80;72.90
45435;DHT22;31183;47.404;8.500;2023-03-23T06:31:09;13.90;74.40
45435;DHT22;31183;47.404;8.500;2023-03-23T06:33:36;14.00;73.70
45435;DHT22;31183;47.404;8.500;2023-03-23T06:36:02;14.00;73.50
45435;DHT22;31183;47.404;8.500;2023-03-23T06:38:27;14.10;72.80
45435;DHT22;31183;47.404;8.500;2023-03-23T06:40:53;14.10;72.10
45435;DHT22;31183;47.404;8.500;2023-03-23T06:43:19;14.30;72.00
45435;DHT22;31183;47.404;8.500;2023-03-23T06:45:45;14.40;71.10
45435;DHT22;31183;47.404;8.500;2023-03-23T06:48:11;14.50;70.40
45435;DHT22;31183;47.404;8.500;2023-03-23T06:50:38;14.60;69.50
45435;DHT22;31183;47.404;8.500;2023-03-23T06:53:04;14.60;69.60
45435;DHT22;31183;47.404;8.500;2023-03-23T06:55:30;14.70;69.50
45435;DHT22;31183;47.404;8.500;2023-03-23T06:57:56;14.80;68.80
45435;DHT22;31183;47.404;8.500;2023-03-23T07:00:21;14.80;68.20
45435;DHT22;31183;47.404;8.500;2023-03-23T07:02:47;14.90;68.10
45435;DHT22;31183;47.404;8.500;2023-03-23T07:05:12;15.00;67.50
45435;DHT22;31183;47.404;8.500;2023-03-23T07:07:39;15.00;67.60
45435;DHT22;31183;47.404;8.500;2023-03-23T07:10:06;15.00;68.30
45435;DHT22;31183;47.404;8.500;2023-03-23T07:12:32;15.10;67.90
45435;DHT22;31183;47.404;8.500;2023-03-23T07:14:58;15.10;67.80
45435;DHT22;31183;47.404;8.500;2023-03-23T07:17:24;15.20;68.10
45435;DHT22;31183;47.404;8.500;2023-03-23T07:19:49;15.20;67.90
45435;DHT22;31183;47.404;8.500;2023-03-23T07:22:15;15.40;67.50
45435;DHT22;31183;47.404;8.500;2023-03-23T07:24:40;15.50;67.10
45435;DHT22;31183;47.404;8.500;2023-03-23T07:27:06;15.70;66.40
45435;DHT22;31183;47.404;8.500;2023-03-23T07:29:31;15.80;65.80
45435;DHT22;31183;47.404;8.500;2023-03-23T07:32:00;15.90;66.00
45435;DHT22;31183;47.404;8.500;2023-03-23T07:34:25;15.80;65.50
45435;DHT22;31183;47.404;8.500;2023-03-23T07:36:51;15.70;66.30
45435;DHT22;31183;47.404;8.500;2023-03-23T07:39:16;15.70;66.30
45435;DHT22;31183;47.404;8.500;2023-03-23T07:41:42;15.60;66.20
45435;DHT22;31183;47.404;8.500;2023-03-23T07:44:07;15.60;66.80
45435;DHT22;31183;47.404;8.500;2023-03-23T07:46:33;15.60;67.40
45435;DHT22;31183;47.404;8.500;2023-03-23T07:48:59;15.60;67.10
45435;DHT22;31183;47.404;8.500;2023-03-23T07:51:25;15.60;66.80
45435;DHT22;31183;47.404;8.500;2023-03-23T07:53:51;15.70;66.70
45435;DHT22;31183;47.404;8.500;2023-03-23T07:56:16;15.70;67.10
45435;DHT22;31183;47.404;8.500;2023-03-23T07:58:47;15.80;66.40
45435;DHT22;31183;47.404;8.500;2023-03-23T08:01:13;15.70;66.80
45435;DHT22;31183;47.404;8.500;2023-03-23T08:03:39;15.70;66.60
45435;DHT22;31183;47.404;8.500;2023-03-23T08:06:05;15.70;67.10
45435;DHT22;31183;47.404;8.500;2023-03-23T08:08:31;15.70;66.80
45435;DHT22;31183;47.404;8.500;2023-03-23T08:10:57;15.70;67.00
45435;DHT22;31183;47.404;8.500;2023-03-23T08:13:23;15.70;67.10
45435;DHT22;31183;47.404;8.500;2023-03-23T08:15:48;15.70;67.70
45435;DHT22;31183;47.404;8.500;2023-03-23T08:18:15;15.70;67.40
45435;DHT22;31183;47.404;8.500;2023-03-23T08:20:40;15.70;67.50
45435;DHT22;31183;47.404;8.500;2023-03-23T08:23:07;15.70;67.50
45435;DHT22;31183;47.404;8.500;2023-03-23T08:25:32;15.70;66.90
45435;DHT22;31183;47.404;8.500;2023-03-23T08:27:59;15.80;66.10
45435;DHT22;31183;47.404;8.500;2023-03-23T08:30:27;15.70;66.20
45435;DHT22;31183;47.404;8.500;2023-03-23T08:32:54;15.80;65.30
45435;DHT22;31183;47.404;8.500;2023-03-23T08:35:20;15.80;66.20
45435;DHT22;31183;47.404;8.500;2023-03-23T08:37:45;15.90;66.20
45435;DHT22;31183;47.404;8.500;2023-03-23T08:40:12;15.90;65.40
45435;DHT22;31183;47.404;8.500;2023-03-23T08:42:40;15.90;63.90
45435;DHT22;31183;47.404;8.500;2023-03-23T08:45:06;16.00;63.80
45435;DHT22;31183;47.404;8.500;2023-03-23T08:47:32;16.00;63.20
45435;DHT22;31183;47.404;8.500;2023-03-23T08:49:58;16.10;63.50
45435;DHT22;31183;47.404;8.500;2023-03-23T08:52:23;16.20;63.80
45435;DHT22;31183;47.404;8.500;2023-03-23T08:54:49;16.20;62.50
45435;DHT22;31183;47.404;8.500;2023-03-23T08:57:15;16.20;63.30
45435;DHT22;31183;47.404;8.500;2023-03-23T08:59:41;16.20;63.60
45435;DHT22;31183;47.404;8.500;2023-03-23T09:02:10;16.30;62.80
45435;DHT22;31183;47.404;8.500;2023-03-23T09:04:37;16.30;63.60
45435;DHT22;31183;47.404;8.500;2023-03-23T09:07:03;16.30;63.10
45435;DHT22;31183;47.404;8.500;2023-03-23T09:09:28;16.30;63.70
45435;DHT22;31183;47.404;8.500;2023-03-23T09:11:54;16.30;64.20
45435;DHT22;31183;47.404;8.500;2023-03-23T09:14:20;16.30;63.60
45435;DHT22;31183;47.404;8.500;2023-03-23T09:16:45;16.30;63.70
45435;DHT22;31183;47.404;8.500;2023-03-23T09:19:11;16.30;63.30
45435;DHT22;31183;47.404;8.500;2023-03-23T09:21:37;16.30;62.80
45435;DHT22;31183;47.404;8.500;2023-03-23T09:24:03;16.20;63.20
45435;DHT22;31183;47.404;8.500;2023-03-23T09:26:30;16.20;62.50
45435;DHT22;31183;47.404;8.500;2023-03-23T09:28:55;16.20;63.10
45435;DHT22;31183;47.404;8.500;2023-03-23T09:31:22;16.10;62.50
45435;DHT22;31183;47.404;8.500;2023-03-23T09:33:47;16.20;63.10
45435;DHT22;31183;47.404;8.500;2023-03-23T09:36:17;16.20;62.70
45435;DHT22;31183;47.404;8.500;2023-03-23T09:38:43;16.20;62.70
45435;DHT22;31183;47.404;8.500;2023-03-23T09:43:59;16.20;63.50
45435;DHT22;31183;47.404;8.500;2023-03-23T09:46:33;16.30;62.70
45435;DHT22;31183;47.404;8.500;2023-03-23T09:49:43;16.30;62.70
45435;DHT22;31183;47.404;8.500;2023-03-23T09:51:51;16.30;63.30
45435;DHT22;31183;47.404;8.500;2023-03-23T09:56:44;16.40;63.10
45435;DHT22;31183;47.404;8.500;2023-03-23T10:01:59;16.50;62.20
45435;DHT22;31183;47.404;8.500;2023-03-23T10:06:58;16.50;63.30
45435;DHT22;31183;47.404;8.500;2023-03-23T10:09:25;16.50;63.60
45435;DHT22;31183;47.404;8.500;2023-03-23T10:12:10;16.60;65.20
45435;DHT22;31183;47.404;8.500;2023-03-23T10:17:22;16.60;65.50
45435;DHT22;31183;47.404;8.500;2023-03-23T10:19:55;16.70;67.60
45435;DHT22;31183;47.404;8.500;2023-03-23T10:22:29;16.80;67.00
45435;DHT22;31183;47.404;8.500;2023-03-23T10:29:53;16.80;67.60
45435;DHT22;31183;47.404;8.500;2023-03-23T10:32:22;16.80;67.80
45435;DHT22;31183;47.404;8.500;2023-03-23T10:34:54;16.70;66.50
45435;DHT22;31183;47.404;8.500;2023-03-23T10:37:28;16.60;66.60
45435;DHT22;31183;47.404;8.500;2023-03-23T10:39:55;16.60;66.00
45435;DHT22;31183;47.404;8.500;2023-03-23T10:42:26;16.50;67.10
45435;DHT22;31183;47.404;8.500;2023-03-23T10:44:52;16.50;66.80
45435;DHT22;31183;47.404;8.500;2023-03-23T10:47:17;16.60;67.60
45435;DHT22;31183;47.404;8.500;2023-03-23T10:52:12;16.60;67.30
45435;DHT22;31183;47.404;8.500;2023-03-23T10:54:39;16.60;66.20
45435;DHT22;31183;47.404;8.500;2023-03-23T10:57:12;16.60;66.90
45435;DHT22;31183;47.404;8.500;2023-03-23T10:59:39;16.70;67.90
45435;DHT22;31183;47.404;8.500;2023-03-23T11:02:14;16.70;68.60
45435;DHT22;31183;47.404;8.500;2023-03-23T11:04:44;16.80;66.60
45435;DHT22;31183;47.404;8.500;2023-03-23T11:07:16;16.90;68.10
45435;DHT22;31183;47.404;8.500;2023-03-23T11:09:59;16.90;65.70
45435;DHT22;31183;47.404;8.500;2023-03-23T11:12:28;17.00;66.40
45435;DHT22;31183;47.404;8.500;2023-03-23T11:15:44;17.00;66.50
45435;DHT22;31183;47.404;8.500;2023-03-23T11:17:54;17.00;67.00
45435;DHT22;31183;47.404;8.500;2023-03-23T11:20:21;17.20;65.60
45435;DHT22;31183;47.404;8.500;2023-03-23T11:22:46;17.30;64.50
45435;DHT22;31183;47.404;8.500;2023-03-23T11:25:12;17.50;63.20
45435;DHT22;31183;47.404;8.500;2023-03-23T11:27:38;17.50;63.10
45435;DHT22;31183;47.404;8.500;2023-03-23T11:30:09;17.60;61.60
45435;DHT22;31183;47.404;8.500;2023-03-23T11:32:36;17.50;63.50
45435;DHT22;31183;47.404;8.500;2023-03-23T11:35:03;17.50;64.00
45435;DHT22;31183;47.404;8.500;2023-03-23T11:42:25;17.50;62.70
45435;DHT22;31183;47.404;8.500;2023-03-23T11:45:05;17.50;63.00
45435;DHT22;31183;47.404;8.500;2023-03-23T11:47:39;17.60;64.10
45435;DHT22;31183;47.404;8.500;2023-03-23T11:50:44;17.60;64.50
45435;DHT22;31183;47.404;8.500;2023-03-23T11:55:25;17.70;63.40
45435;DHT22;31183;47.404;8.500;2023-03-23T11:57:52;17.90;63.90
45435;DHT22;31183;47.404;8.500;2023-03-23T12:00:19;18.00;62.60
45435;DHT22;31183;47.404;8.500;2023-03-23T12:02:53;18.20;62.40
45435;DHT22;31183;47.404;8.500;2023-03-23T12:17:48;18.00;62.20
45435;DHT22;31183;47.404;8.500;2023-03-23T12:20:53;18.00;61.80
45435;DHT22;31183;47.404;8.500;2023-03-23T12:23:11;18.00;59.70
45435;DHT22;31183;47.404;8.500;2023-03-23T12:25:43;18.00;62.20
45435;DHT22;31183;47.404;8.500;2023-03-23T12:28:19;18.10;62.40
45435;DHT22;31183;47.404;8.500;2023-03-23T12:30:49;18.10;62.10
45435;DHT22;31183;47.404;8.500;2023-03-23T12:33:32;18.10;62.70
45435;DHT22;31183;47.404;8.500;2023-03-23T12:43:48;18.10;61.80
45435;DHT22;31183;47.404;8.500;2023-03-23T12:46:31;18.00;61.60
45435;DHT22;31183;47.404;8.500;2023-03-23T12:49:01;18.00;61.60
45435;DHT22;31183;47.404;8.500;2023-03-23T12:51:34;18.00;60.70
45435;DHT22;31183;47.404;8.500;2023-03-23T12:54:16;17.90;60.50
45435;DHT22;31183;47.404;8.500;2023-03-23T12:56:46;18.00;61.30
45435;DHT22;31183;47.404;8.500;2023-03-23T13:02:10;18.00;62.60
45435;DHT22;31183;47.404;8.500;2023-03-23T13:04:39;18.00;62.10
45435;DHT22;31183;47.404;8.500;2023-03-23T13:07:07;18.00;61.20
45435;DHT22;31183;47.404;8.500;2023-03-23T13:09:53;18.10;61.00
45435;DHT22;31183;47.404;8.500;2023-03-23T13:12:20;18.10;60.50
45435;DHT22;31183;47.404;8.500;2023-03-23T13:17:48;18.10;62.20
45435;DHT22;31183;47.404;8.500;2023-03-23T13:20:27;18.00;62.50
45435;DHT22;31183;47.404;8.500;2023-03-23T13:22:59;18.00;62.80
45435;DHT22;31183;47.404;8.500;2023-03-23T13:27:58;18.00;63.60
45435;DHT22;31183;47.404;8.500;2023-03-23T13:30:24;18.10;62.90
45435;DHT22;31183;47.404;8.500;2023-03-23T13:32:50;18.00;63.10
45435;DHT22;31183;47.404;8.500;2023-03-23T13:35:17;17.90;64.50
45435;DHT22;31183;47.404;8.500;2023-03-23T13:37:44;17.80;65.90
45435;DHT22;31183;47.404;8.500;2023-03-23T13:42:46;17.80;63.60
45435;DHT22;31183;47.404;8.500;2023-03-23T13:48:03;17.70;63.40
45435;DHT22;31183;47.404;8.500;2023-03-23T13:50:29;17.70;65.80
45435;DHT22;31183;47.404;8.500;2023-03-23T13:52:59;17.70;64.30
45435;DHT22;31183;47.404;8.500;2023-03-23T13:57:58;17.50;64.30
45435;DHT22;31183;47.404;8.500;2023-03-23T14:00:36;17.50;66.30
45435;DHT22;31183;47.404;8.500;2023-03-23T14:05:32;17.40;66.90
45435;DHT22;31183;47.404;8.500;2023-03-23T14:10:41;17.50;67.50
45435;DHT22;31183;47.404;8.500;2023-03-23T14:13:14;17.50;66.70
45435;DHT22;31183;47.404;8.500;2023-03-23T14:15:42;17.50;65.70
45435;DHT22;31183;47.404;8.500;2023-03-23T14:18:12;17.60;64.80
45435;DHT22;31183;47.404;8.500;2023-03-23T14:20:38;17.60;63.30
45435;DHT22;31183;47.404;8.500;2023-03-23T14:23:05;17.60;62.10
45435;DHT22;31183;47.404;8.500;2023-03-23T14:25:31;17.60;63.30
45435;DHT22;31183;47.404;8.500;2023-03-23T14:27:57;17.60;62.90
45435;DHT22;31183;47.404;8.500;2023-03-23T14:30:24;17.70;62.30
45435;DHT22;31183;47.404;8.500;2023-03-23T14:32:51;17.70;62.10
45435;DHT22;31183;47.404;8.500;2023-03-23T14:35:27;17.60;61.80
45435;DHT22;31183;47.404;8.500;2023-03-23T14:37:53;17.60;62.20
45435;DHT22;31183;47.404;8.500;2023-03-23T14:40:19;17.60;61.90
45435;DHT22;31183;47.404;8.500;2023-03-23T14:42:44;17.60;61.50
45435;DHT22;31183;47.404;8.500;2023-03-23T14:45:12;17.60;61.50
45435;DHT22;31183;47.404;8.500;2023-03-23T14:47:58;17.50;61.30
45435;DHT22;31183;47.404;8.500;2023-03-23T14:52:50;17.50;61.30
45435;DHT22;31183;47.404;8.500;2023-03-23T14:55:20;17.50;60.50
45435;DHT22;31183;47.404;8.500;2023-03-23T14:57:46;17.40;60.30
45435;DHT22;31183;47.404;8.500;2023-03-23T15:00:17;17.40;60.80
45435;DHT22;31183;47.404;8.500;2023-03-23T15:02:44;17.40;60.80
45435;DHT22;31183;47.404;8.500;2023-03-23T15:05:21;17.30;60.80
45435;DHT22;31183;47.404;8.500;2023-03-23T15:07:53;17.40;61.40
45435;DHT22;31183;47.404;8.500;2023-03-23T15:10:21;17.40;61.20
45435;DHT22;31183;47.404;8.500;2023-03-23T15:12:48;17.40;62.00
45435;DHT22;31183;47.404;8.500;2023-03-23T15:15:33;17.40;62.30
45435;DHT22;31183;47.404;8.500;2023-03-23T15:17:59;17.30;62.20
45435;DHT22;31183;47.404;8.500;2023-03-23T15:20:27;17.40;62.70
45435;DHT22;31183;47.404;8.500;2023-03-23T15:22:53;17.40;63.20
45435;DHT22;31183;47.404;8.500;2023-03-23T15:25:20;17.40;62.30
45435;DHT22;31183;47.404;8.500;2023-03-23T15:27:50;17.30;62.80
45435;DHT22;31183;47.404;8.500;2023-03-23T15:32:49;17.20;63.00
45435;DHT22;31183;47.404;8.500;2023-03-23T15:35:17;17.20;63.10
45435;DHT22;31183;47.404;8.500;2023-03-23T15:37:56;17.20;63.00
45435;DHT22;31183;47.404;8.500;2023-03-23T15:40:23;17.20;63.20
45435;DHT22;31183;47.404;8.500;2023-03-23T15:42:49;17.20;63.50
45435;DHT22;31183;47.404;8.500;2023-03-23T15:45:24;17.20;63.20
45435;DHT22;31183;47.404;8.500;2023-03-23T15:47:50;17.20;63.40
45435;DHT22;31183;47.404;8.500;2023-03-23T15:50:17;17.20;63.40
45435;DHT22;31183;47.404;8.500;2023-03-23T15:52:43;17.20;62.70
45435;DHT22;31183;47.404;8.500;2023-03-23T15:55:25;17.20;62.60
45435;DHT22;31183;47.404;8.500;2023-03-23T15:57:51;17.10;63.10
45435;DHT22;31183;47.404;8.500;2023-03-23T16:00:18;17.10;63.40
45435;DHT22;31183;47.404;8.500;2023-03-23T16:02:46;17.10;64.30
45435;DHT22;31183;47.404;8.500;2023-03-23T16:05:14;17.10;63.60
45435;DHT22;31183;47.404;8.500;2023-03-23T16:07:41;17.10;63.30
45435;DHT22;31183;47.404;8.500;2023-03-23T16:10:13;17.00;63.50
45435;DHT22;31183;47.404;8.500;2023-03-23T16:12:40;16.90;63.60
45435;DHT22;31183;47.404;8.500;2023-03-23T16:15:07;16.90;64.00
45435;DHT22;31183;47.404;8.500;2023-03-23T16:17:34;16.80;63.60
45435;DHT22;31183;47.404;8.500;2023-03-23T16:20:01;16.80;64.00
45435;DHT22;31183;47.404;8.500;2023-03-23T16:22:29;16.70;64.00
45435;DHT22;31183;47.404;8.500;2023-03-23T16:24:55;16.70;64.50
45435;DHT22;31183;47.404;8.500;2023-03-23T16:27:22;16.70;64.90
45435;DHT22;31183;47.404;8.500;2023-03-23T16:29:49;16.70;64.70
45435;DHT22;31183;47.404;8.500;2023-03-23T16:32:29;16.70;65.00
45435;DHT22;31183;47.404;8.500;2023-03-23T16:34:56;16.60;65.00
45435;DHT22;31183;47.404;8.500;2023-03-23T16:37:22;16.60;65.20
45435;DHT22;31183;47.404;8.500;2023-03-23T16:39:49;16.60;65.20
45435;DHT22;31183;47.404;8.500;2023-03-23T16:42:15;16.60;64.80
45435;DHT22;31183;47.404;8.500;2023-03-23T16:44:42;16.60;64.80
45435;DHT22;31183;47.404;8.500;2023-03-23T16:47:08;16.60;65.00
45435;DHT22;31183;47.404;8.500;2023-03-23T16:49:35;16.50;65.60
45435;DHT22;31183;47.404;8.500;2023-03-23T16:52:02;16.60;65.70
45435;DHT22;31183;47.404;8.500;2023-03-23T16:54:28;16.50;66.30
45435;DHT22;31183;47.404;8.500;2023-03-23T16:56:55;16.50;66.20
45435;DHT22;31183;47.404;8.500;2023-03-23T16:59:21;16.50;66.50
45435;DHT22;31183;47.404;8.500;2023-03-23T17:01:48;16.50;66.90
45435;DHT22;31183;47.404;8.500;2023-03-23T17:04:14;16.50;67.10
45435;DHT22;31183;47.404;8.500;2023-03-23T17:06:41;16.50;67.50
45435;DHT22;31183;47.404;8.500;2023-03-23T17:09:09;16.60;67.40
45435;DHT22;31183;47.404;8.500;2023-03-23T17:11:35;16.60;67.20
45435;DHT22;31183;47.404;8.500;2023-03-23T17:14:02;16.60;67.80